createdAt,value
2022-09-11T00:00:43.091Z,88.55
2022-09-11T00:03:31.576Z,87.84
2022-09-11T00:06:28.834Z,88.24
2022-09-11T00:09:16.024Z,88.10
2022-09-11T00:12:01.513Z,88.25
2022-09-11T00:14:47.216Z,88.11
2022-09-11T00:17:33.164Z,88.38
2022-09-11T00:20:19.117Z,89.30
2022-09-11T00:23:05.322Z,89.45
2022-09-11T00:25:51.533Z,89.47
2022-09-11T00:28:39.937Z,88.91
2022-09-11T00:31:28.186Z,88.90
2022-09-11T00:34:14.022Z,88.76
2022-09-11T00:36:59.793Z,88.58
2022-09-11T00:39:45.391Z,88.52
2022-09-11T00:42:31.065Z,88.01
2022-09-11T00:45:27.093Z,88.07
2022-09-11T00:48:16.972Z,87.89
2022-09-11T00:51:04.542Z,87.68
2022-09-11T00:53:51.834Z,87.70
2022-09-11T00:56:38.381Z,87.49
2022-09-11T00:59:27.883Z,87.39
2022-09-11T01:02:17.759Z,86.95
2022-09-11T01:05:04.581Z,87.04
2022-09-11T01:07:54.332Z,86.97
2022-09-11T01:10:45.942Z,86.92
2022-09-11T01:13:34.835Z,86.71
2022-09-11T01:16:24.666Z,86.87
2022-09-11T01:19:38.939Z,86.64
2022-09-11T01:23:02.456Z,86.42
2022-09-11T01:26:12.314Z,86.55
2022-09-11T01:29:21.062Z,86.46
2022-09-11T01:32:34.359Z,86.37
2022-09-11T01:35:49.602Z,86.36
2022-09-11T01:38:47.885Z,86.71
2022-09-11T01:41:40.759Z,86.79
2022-09-11T01:44:28.855Z,86.75
2022-09-11T01:47:17.408Z,87.02
2022-09-11T01:50:10.194Z,86.76
2022-09-11T01:52:59.172Z,86.59
2022-09-11T01:55:57.549Z,86.57
2022-09-11T01:58:45.470Z,86.72
2022-09-11T02:01:34.378Z,86.50
2022-09-11T02:04:27.345Z,86.65
2022-09-11T02:07:19.882Z,86.63
2022-09-11T02:10:14.588Z,86.77
2022-09-11T02:13:27.807Z,86.53
2022-09-11T02:16:38.984Z,85.86
2022-09-11T02:19:26.809Z,86.62
2022-09-11T02:22:12.984Z,86.54
2022-09-11T02:24:58.580Z,86.48
2022-09-11T02:27:44.498Z,86.73
2022-09-11T02:30:29.857Z,86.48
2022-09-11T02:33:35.953Z,86.41
2022-09-11T02:36:28.362Z,86.40
2022-09-11T02:39:45.518Z,86.25
2022-09-11T02:42:32.034Z,86.33
2022-09-11T02:45:31.285Z,86.37
2022-09-11T02:48:39.911Z,86.34
2022-09-11T02:51:47.528Z,86.24
2022-09-11T02:54:43.878Z,86.28
2022-09-11T02:57:33.883Z,86.32
2022-09-11T03:00:19.754Z,86.62
2022-09-11T03:03:06.239Z,86.47
2022-09-11T03:05:51.861Z,86.18
2022-09-11T03:08:37.869Z,86.14
2022-09-11T03:11:23.640Z,86.41
2022-09-11T03:14:09.525Z,86.34
2022-09-11T03:16:57.622Z,86.15
2022-09-11T03:19:43.626Z,86.09
2022-09-11T03:22:29.059Z,86.41
2022-09-11T03:25:15.197Z,86.48
2022-09-11T03:28:04.658Z,86.18
2022-09-11T03:30:53.079Z,86.42
2022-09-11T03:33:38.902Z,86.32
2022-09-11T03:36:24.587Z,86.42
2022-09-11T03:39:12.078Z,86.14
2022-09-11T03:41:58.409Z,86.35
2022-09-11T03:44:45.637Z,85.90
2022-09-11T03:47:32.506Z,86.09
2022-09-11T03:50:18.185Z,85.78
2022-09-11T03:53:03.757Z,86.37
2022-09-11T03:55:52.331Z,86.23
2022-09-11T03:58:38.252Z,86.08
2022-09-11T04:01:24.385Z,86.29
2022-09-11T04:04:11.027Z,86.41
2022-09-11T04:07:01.376Z,86.10
2022-09-11T04:09:47.997Z,85.88
2022-09-11T04:12:33.797Z,85.95
2022-09-11T04:15:20.125Z,86.12
2022-09-11T04:18:07.528Z,86.03
2022-09-11T04:20:54.528Z,86.26
2022-09-11T04:23:41.669Z,86.20
2022-09-11T04:26:31.260Z,86.12
2022-09-11T04:29:24.249Z,86.51
2022-09-11T04:32:11.810Z,86.27
2022-09-11T04:34:58.652Z,86.50
2022-09-11T04:37:44.348Z,86.25
2022-09-11T04:40:30.499Z,86.41
2022-09-11T04:43:17.722Z,86.15
2022-09-11T04:46:10.245Z,86.52
2022-09-11T04:48:59.270Z,86.33
2022-09-11T04:51:45.281Z,86.40
2022-09-11T04:54:37.040Z,86.73
2022-09-11T04:57:25.992Z,86.55
2022-09-11T05:00:13.285Z,86.75
2022-09-11T05:02:59.161Z,86.33
2022-09-11T05:05:46.375Z,86.64
2022-09-11T05:08:33.651Z,86.41
2022-09-11T05:11:22.101Z,86.78
2022-09-11T05:14:09.013Z,87.08
2022-09-11T05:16:56.327Z,86.93
2022-09-11T05:19:44.509Z,86.89
2022-09-11T05:22:30.586Z,87.57
2022-09-11T05:25:18.608Z,87.30
2022-09-11T05:28:05.931Z,87.37
2022-09-11T05:30:51.814Z,87.33
2022-09-11T05:33:37.609Z,87.17
2022-09-11T05:36:23.932Z,87.45
2022-09-11T05:39:10.698Z,87.43
2022-09-11T05:41:58.262Z,87.20
2022-09-11T05:44:49.019Z,87.48
2022-09-11T05:47:35.799Z,87.45
2022-09-11T05:50:21.921Z,87.70
2022-09-11T05:53:08.077Z,87.01
2022-09-11T05:55:55.225Z,87.42
2022-09-11T05:58:47.295Z,87.73
2022-09-11T06:01:34.594Z,87.40
2022-09-11T06:04:29.141Z,87.75
2022-09-11T06:07:17.503Z,87.97
2022-09-11T06:10:07.696Z,87.89
2022-09-11T06:12:54.007Z,87.76
2022-09-11T06:15:47.370Z,87.46
2022-09-11T06:18:35.672Z,87.74
2022-09-11T06:21:24.275Z,88.01
2022-09-11T06:24:22.697Z,88.64
2022-09-11T06:27:33.406Z,88.50
2022-09-11T06:30:22.169Z,88.62
2022-09-11T06:33:08.459Z,88.38
2022-09-11T06:36:01.586Z,88.47
2022-09-11T06:38:51.721Z,89.80
2022-09-11T06:41:37.969Z,88.96
2022-09-11T06:44:30.509Z,89.34
2022-09-11T06:47:20.749Z,89.45
2022-09-11T06:50:07.120Z,90.13
2022-09-11T06:53:02.764Z,90.06
2022-09-11T06:55:49.891Z,89.92
2022-09-11T06:58:37.132Z,89.81
2022-09-11T07:01:23.601Z,89.42
2022-09-11T07:04:14.394Z,89.73
2022-09-11T07:07:00.824Z,90.36
2022-09-11T07:09:47.738Z,90.71
2022-09-11T07:12:33.791Z,91.60
2022-09-11T07:15:19.804Z,91.13
2022-09-11T07:18:06.415Z,91.62
2022-09-11T07:20:52.297Z,91.84
2022-09-11T07:23:37.946Z,92.22
2022-09-11T07:26:27.530Z,92.41
2022-09-11T07:29:18.781Z,92.56
2022-09-11T07:32:06.287Z,93.30
2022-09-11T07:34:52.400Z,93.15
2022-09-11T07:37:38.415Z,93.08
2022-09-11T07:40:24.627Z,93.67
2022-09-11T07:43:10.798Z,93.82
2022-09-11T07:45:57.301Z,93.80
2022-09-11T07:48:43.979Z,93.60
2022-09-11T07:51:30.720Z,93.56
2022-09-11T07:54:21.818Z,94.03
2022-09-11T07:57:07.996Z,94.49
2022-09-11T07:59:54.499Z,94.13
2022-09-11T08:02:42.434Z,94.42
2022-09-11T08:05:28.339Z,94.64
2022-09-11T08:08:16.238Z,94.64
2022-09-11T08:11:06.633Z,95.05
2022-09-11T08:13:54.437Z,94.62
2022-09-11T08:16:42.273Z,94.83
2022-09-11T08:19:28.410Z,95.10
2022-09-11T08:22:18.147Z,95.73
2022-09-11T08:25:05.888Z,95.18
2022-09-11T08:27:53.202Z,95.50
2022-09-11T08:30:41.289Z,95.01
2022-09-11T08:33:28.954Z,95.88
2022-09-11T08:36:15.951Z,94.96
2022-09-11T08:39:05.217Z,93.81
2022-09-11T08:42:06.428Z,94.54
2022-09-11T08:44:56.517Z,93.09
2022-09-11T08:47:57.327Z,93.34
2022-09-11T08:50:43.868Z,93.54
2022-09-11T08:53:32.907Z,93.49
2022-09-11T08:56:22.627Z,92.88
2022-09-11T08:59:54.857Z,92.99
2022-09-11T09:03:03.087Z,93.07
2022-09-11T09:06:14.306Z,92.37
2022-09-11T09:09:38.145Z,93.27
2022-09-11T09:12:45.717Z,92.41
2022-09-11T09:15:48.996Z,91.79
2022-09-11T09:18:38.829Z,92.68
2022-09-11T09:21:38.366Z,92.03
2022-09-11T09:24:24.313Z,91.78
2022-09-11T09:27:23.685Z,91.06
2022-09-11T09:30:16.058Z,90.89
2022-09-11T09:33:29.227Z,90.24
2022-09-11T09:36:18.330Z,90.32
2022-09-11T09:39:13.127Z,89.51
2022-09-11T09:42:16.981Z,90.01
2022-09-11T09:45:19.242Z,89.34
2022-09-11T09:48:07.090Z,89.35
2022-09-11T09:50:52.605Z,90.33
2022-09-11T09:53:45.704Z,90.13
2022-09-11T09:56:34.979Z,89.66
2022-09-11T09:59:26.333Z,89.83
2022-09-11T10:02:12.296Z,90.34
2022-09-11T10:05:17.006Z,90.92
2022-09-11T10:08:07.359Z,90.50
2022-09-11T10:10:58.255Z,91.38
2022-09-11T10:13:53.551Z,91.42
2022-09-11T10:16:40.312Z,92.25
2022-09-11T10:19:40.036Z,92.03
2022-09-11T10:22:30.912Z,92.59
2022-09-11T10:25:30.189Z,92.39
2022-09-11T10:28:19.472Z,92.33
2022-09-11T10:31:05.634Z,92.34
2022-09-11T10:33:56.586Z,91.66
2022-09-11T10:36:42.476Z,91.73
2022-09-11T10:39:29.765Z,92.23
2022-09-11T10:42:27.514Z,91.61
2022-09-11T10:45:18.085Z,91.53
2022-09-11T10:48:24.063Z,91.88
2022-09-11T10:51:11.885Z,91.88
2022-09-11T10:54:11.026Z,90.75
2022-09-11T10:57:00.233Z,90.54
2022-09-11T11:00:08.463Z,90.29
2022-09-11T11:03:23.284Z,91.01
2022-09-11T11:06:20.011Z,91.04
2022-09-11T11:09:39.506Z,90.96
2022-09-11T11:12:40.181Z,90.72
2022-09-11T11:15:33.064Z,90.18
2022-09-11T11:18:31.408Z,91.37
2022-09-11T11:21:41.874Z,91.22
2022-09-11T11:24:46.904Z,91.05
2022-09-11T11:28:06.804Z,91.93
2022-09-11T11:31:25.234Z,91.69
2022-09-11T11:34:29.930Z,91.24
2022-09-11T11:37:26.272Z,91.87
2022-09-11T11:40:29.071Z,91.08
2022-09-11T11:43:17.598Z,91.42
2022-09-11T11:46:38.919Z,90.92
2022-09-11T11:49:36.951Z,90.27
2022-09-11T11:52:25.166Z,90.71
2022-09-11T11:55:17.844Z,90.42
2022-09-11T11:58:04.554Z,90.38
2022-09-11T12:00:58.887Z,90.58
2022-09-11T12:04:04.848Z,90.32
2022-09-11T12:06:51.199Z,90.55
2022-09-11T12:09:36.864Z,90.38
2022-09-11T12:12:25.161Z,89.91
2022-09-11T12:15:21.725Z,90.12
2022-09-11T12:18:23.220Z,89.97
2022-09-11T12:21:24.076Z,90.03
2022-09-11T12:24:12.397Z,90.45
2022-09-11T12:27:35.939Z,90.36
2022-09-11T12:30:28.026Z,90.07
2022-09-11T12:33:41.858Z,90.06
2022-09-11T12:37:20.317Z,89.56
2022-09-11T12:40:20.322Z,89.36
2022-09-11T12:43:26.354Z,89.29
2022-09-11T12:46:21.312Z,88.72
2022-09-11T12:49:22.005Z,88.66
2022-09-11T12:52:17.887Z,88.14
2022-09-11T12:55:27.059Z,87.88
2022-09-11T12:58:19.025Z,87.56
2022-09-11T13:01:19.377Z,87.53
2022-09-11T13:04:12.313Z,87.49
2022-09-11T13:07:03.761Z,87.38
2022-09-11T13:09:49.166Z,86.83
2022-09-11T13:12:35.322Z,86.77
2022-09-11T13:15:37.738Z,86.05
2022-09-11T13:18:28.101Z,86.38
2022-09-11T13:21:15.095Z,85.67
2022-09-11T13:24:01.663Z,85.86
2022-09-11T13:26:48.205Z,86.38
2022-09-11T13:29:36.680Z,86.33
2022-09-11T13:32:22.596Z,86.12
2022-09-11T13:35:18.070Z,85.83
2022-09-11T13:38:11.028Z,85.44
2022-09-11T13:40:59.181Z,85.55
2022-09-11T13:43:48.699Z,85.33
2022-09-11T13:46:35.339Z,84.74
2022-09-11T13:49:35.197Z,85.35
2022-09-11T13:52:23.312Z,84.39
2022-09-11T13:55:11.988Z,84.40
2022-09-11T13:58:02.647Z,83.63
2022-09-11T14:00:50.681Z,83.33
2022-09-11T14:03:37.705Z,83.34
2022-09-11T14:06:23.562Z,83.29
2022-09-11T14:09:19.005Z,83.17
2022-09-11T14:12:04.848Z,82.66
2022-09-11T14:14:55.014Z,83.09
2022-09-11T14:17:42.185Z,82.93
2022-09-11T14:20:30.057Z,82.94
2022-09-11T14:23:23.995Z,82.81
2022-09-11T14:26:15.929Z,82.45
2022-09-11T14:29:25.055Z,82.25
2022-09-11T14:32:37.062Z,82.53
2022-09-11T14:35:22.864Z,82.64
2022-09-11T14:38:10.720Z,82.45
2022-09-11T14:40:59.218Z,82.44
2022-09-11T14:43:49.465Z,82.50
2022-09-11T14:46:35.349Z,82.37
2022-09-11T14:49:23.165Z,82.34
2022-09-11T14:52:13.813Z,82.35
2022-09-11T14:55:00.605Z,82.19
2022-09-11T14:57:46.826Z,82.12
2022-09-11T15:00:33.820Z,81.96
2022-09-11T15:03:20.314Z,81.95
2022-09-11T15:06:14.271Z,81.53
2022-09-11T15:09:01.603Z,82.08
2022-09-11T15:11:47.808Z,81.46
2022-09-11T15:14:55.035Z,81.37
2022-09-11T15:17:40.075Z,81.26
2022-09-11T15:20:29.112Z,81.20
2022-09-11T15:23:16.572Z,80.98
2022-09-11T15:26:02.576Z,80.77
2022-09-11T15:28:50.948Z,81.10
2022-09-11T15:31:38.931Z,80.90
2022-09-11T15:34:31.929Z,80.43
2022-09-11T15:37:18.514Z,80.77
2022-09-11T15:40:07.975Z,81.05
2022-09-11T15:42:56.759Z,80.69
2022-09-11T15:45:43.089Z,80.29
2022-09-11T15:48:31.007Z,80.40
2022-09-11T15:51:19.799Z,80.48
2022-09-11T15:54:05.580Z,80.38
2022-09-11T15:56:52.902Z,80.33
2022-09-11T15:59:40.602Z,80.36
2022-09-11T16:02:27.252Z,79.85
2022-09-11T16:05:14.504Z,80.08
2022-09-11T16:08:00.431Z,80.00
2022-09-11T16:10:46.065Z,80.08
2022-09-11T16:13:32.541Z,79.86
2022-09-11T16:16:19.110Z,79.57
2022-09-11T16:19:05.217Z,79.59
2022-09-11T16:21:50.783Z,79.23
2022-09-11T16:24:37.637Z,79.24
2022-09-11T16:27:24.657Z,79.32
2022-09-11T16:30:42.550Z,79.71
2022-09-11T16:33:16.934Z,79.22
2022-09-11T16:36:06.758Z,79.12
2022-09-11T16:38:54.918Z,79.52
2022-09-11T16:41:41.006Z,79.13
2022-09-11T16:44:28.389Z,78.99
2022-09-11T16:47:15.577Z,79.44
2022-09-11T16:50:07.400Z,78.92
2022-09-11T16:52:54.332Z,79.53
2022-09-11T16:55:40.098Z,79.48
2022-09-11T16:58:26.286Z,79.33
2022-09-11T17:01:17.055Z,79.37
2022-09-11T17:04:03.856Z,78.91
2022-09-11T17:06:49.502Z,79.41
2022-09-11T17:09:35.658Z,79.08
2022-09-11T17:12:22.272Z,79.08
2022-09-11T17:15:08.695Z,79.27
2022-09-11T17:17:54.763Z,78.87
2022-09-11T17:20:40.832Z,79.35
2022-09-11T17:23:27.266Z,79.19
2022-09-11T17:26:17.476Z,79.45
2022-09-11T17:29:04.586Z,79.20
2022-09-11T17:32:01.083Z,79.00
2022-09-11T17:34:58.517Z,79.05
2022-09-11T17:37:45.943Z,79.37
2022-09-11T17:40:32.243Z,79.18
2022-09-11T17:43:18.516Z,78.96
2022-09-11T17:46:06.950Z,79.36
2022-09-11T17:48:53.209Z,79.08
2022-09-11T17:51:39.226Z,78.98
2022-09-11T17:54:27.268Z,79.25
2022-09-11T17:57:13.712Z,78.90
2022-09-11T17:59:59.803Z,79.06
2022-09-11T18:02:46.648Z,78.83
2022-09-11T18:05:35.434Z,78.96
2022-09-11T18:08:21.627Z,79.20
2022-09-11T18:11:09.536Z,79.19
2022-09-11T18:13:55.415Z,78.88
2022-09-11T18:16:43.621Z,78.90
2022-09-11T18:19:30.272Z,78.82
2022-09-11T18:22:19.839Z,78.92
2022-09-11T18:25:06.156Z,78.78
2022-09-11T18:27:52.384Z,78.75
2022-09-11T18:30:41.222Z,78.78
2022-09-11T18:33:26.707Z,78.40
2022-09-11T18:36:13.991Z,78.65
2022-09-11T18:39:01.323Z,78.51
2022-09-11T18:41:48.378Z,78.63
2022-09-11T18:44:34.737Z,78.67
2022-09-11T18:47:20.837Z,78.47
2022-09-11T18:50:07.420Z,78.37
2022-09-11T18:52:53.097Z,78.66
2022-09-11T18:55:38.991Z,78.32
2022-09-11T18:58:24.932Z,78.44
2022-09-11T19:01:14.140Z,78.35
2022-09-11T19:04:00.208Z,78.36
2022-09-11T19:06:46.604Z,78.25
2022-09-11T19:09:32.573Z,78.26
2022-09-11T19:12:19.063Z,78.21
2022-09-11T19:15:06.506Z,78.26
2022-09-11T19:17:55.462Z,78.05
2022-09-11T19:20:41.645Z,77.83
2022-09-11T19:23:31.832Z,78.05
2022-09-11T19:26:23.044Z,77.90
2022-09-11T19:29:10.329Z,77.94
2022-09-11T19:31:55.936Z,77.88
2022-09-11T19:34:46.336Z,77.94
2022-09-11T19:37:33.669Z,77.47
2022-09-11T19:40:20.854Z,77.70
2022-09-11T19:43:08.556Z,77.57
2022-09-11T19:46:05.360Z,77.65
2022-09-11T19:48:52.366Z,77.62
2022-09-11T19:51:41.358Z,77.64
2022-09-11T19:54:26.882Z,77.62
2022-09-11T19:57:13.400Z,77.29
2022-09-11T20:00:00.469Z,77.34
2022-09-11T20:02:46.472Z,77.41
2022-09-11T20:05:32.654Z,77.13
2022-09-11T20:08:19.399Z,77.48
2022-09-11T20:11:06.873Z,77.50
2022-09-11T20:13:54.192Z,77.27
2022-09-11T20:16:40.552Z,77.31
2022-09-11T20:19:26.910Z,77.14
2022-09-11T20:22:12.592Z,77.30
2022-09-11T20:25:00.332Z,77.20
2022-09-11T20:27:46.588Z,77.27
2022-09-11T20:30:33.887Z,77.16
2022-09-11T20:33:19.808Z,76.88
2022-09-11T20:36:06.292Z,77.15
2022-09-11T20:38:54.302Z,77.21
2022-09-11T20:41:40.674Z,76.91
2022-09-11T20:44:27.174Z,76.99
2022-09-11T20:47:14.324Z,77.07
2022-09-11T20:50:00.608Z,77.16
2022-09-11T20:52:46.691Z,77.34
2022-09-11T20:55:32.297Z,77.12
2022-09-11T20:58:20.665Z,77.36
2022-09-11T21:01:07.770Z,77.40
2022-09-11T21:03:55.391Z,76.99
2022-09-11T21:06:40.888Z,77.49
2022-09-11T21:09:27.106Z,77.54
2022-09-11T21:12:12.522Z,77.05
2022-09-11T21:14:58.561Z,77.40
2022-09-11T21:17:44.229Z,77.30
2022-09-11T21:20:30.163Z,77.39
2022-09-11T21:23:15.782Z,77.50
2022-09-11T21:26:01.828Z,77.39
2022-09-11T21:28:52.574Z,77.17
2022-09-11T21:31:41.565Z,77.40
2022-09-11T21:34:27.274Z,77.46
2022-09-11T21:37:12.992Z,77.01
2022-09-11T21:39:58.616Z,77.13
2022-09-11T21:42:45.080Z,77.29
2022-09-11T21:45:30.773Z,77.13
2022-09-11T21:48:17.090Z,77.27
2022-09-11T21:51:08.039Z,77.33
2022-09-11T21:53:58.965Z,76.96
2022-09-11T21:56:44.320Z,77.09
2022-09-11T21:59:30.458Z,77.21
2022-09-11T22:02:17.941Z,77.28
2022-09-11T22:05:04.132Z,77.22
2022-09-11T22:07:49.866Z,77.46
2022-09-11T22:10:36.241Z,77.16
2022-09-11T22:13:22.157Z,77.30
2022-09-11T22:16:11.212Z,77.29
2022-09-11T22:18:57.051Z,77.15
2022-09-11T22:21:44.137Z,77.02
2022-09-11T22:24:31.083Z,77.01
2022-09-11T22:27:16.885Z,76.80
2022-09-11T22:30:04.285Z,76.84
2022-09-11T22:32:50.513Z,76.56
2022-09-11T22:35:36.616Z,76.55
2022-09-11T22:38:22.616Z,76.68
2022-09-11T22:41:09.415Z,76.69
2022-09-11T22:43:55.826Z,76.79
2022-09-11T22:46:43.086Z,76.44
2022-09-11T22:49:31.008Z,76.65
2022-09-11T22:52:16.390Z,76.53
2022-09-11T22:55:02.390Z,76.49
2022-09-11T22:57:48.073Z,76.61
2022-09-11T23:00:34.488Z,76.56
2022-09-11T23:03:20.119Z,76.31
2022-09-11T23:06:24.537Z,76.33
2022-09-11T23:09:12.970Z,76.50
2022-09-11T23:11:59.621Z,76.78
2022-09-11T23:14:45.826Z,76.40
2022-09-11T23:17:31.568Z,76.60
2022-09-11T23:20:18.385Z,76.53
2022-09-11T23:23:05.009Z,76.57
2022-09-11T23:25:51.627Z,76.22
2022-09-11T23:28:38.245Z,76.62
2022-09-11T23:31:26.696Z,76.46
2022-09-11T23:34:15.130Z,76.38
2022-09-11T23:37:01.053Z,76.95
2022-09-11T23:39:46.800Z,76.74
2022-09-11T23:42:32.742Z,76.94
2022-09-11T23:45:18.546Z,76.72
2022-09-11T23:48:04.043Z,76.62
2022-09-11T23:50:50.218Z,76.47
2022-09-11T23:53:35.992Z,76.92
2022-09-11T23:56:22.492Z,76.65
2022-09-11T23:59:09.187Z,77.12
